createdAt,value
2022-11-16T00:00:05.951Z,8.3
2022-11-16T00:02:02.775Z,7.4
2022-11-16T00:04:04.235Z,9.0
2022-11-16T00:06:05.472Z,8.3
2022-11-16T00:08:03.062Z,7.4
2022-11-16T00:10:02.684Z,9.2
2022-11-16T00:12:05.668Z,7.5
2022-11-16T00:14:03.943Z,9.8
2022-11-16T00:16:02.747Z,10.0
2022-11-16T00:18:02.629Z,10.1
2022-11-16T00:20:03.025Z,8.4
2022-11-16T00:22:03.307Z,7.8
2022-11-16T00:24:03.750Z,8.2
2022-11-16T00:26:05.051Z,9.2
2022-11-16T00:28:02.636Z,7.8
2022-11-16T00:30:03.147Z,8.5
2022-11-16T00:32:02.911Z,7.5
2022-11-16T00:34:02.752Z,8.1
2022-11-16T00:36:04.346Z,9.1
2022-11-16T00:38:03.242Z,8.5
2022-11-16T00:40:02.705Z,9.7
2022-11-16T00:42:03.389Z,9.6
2022-11-16T00:44:02.843Z,8.4
2022-11-16T00:46:03.362Z,8.9
2022-11-16T00:48:03.250Z,8.0
2022-11-16T00:50:03.535Z,8.3
2022-11-16T00:52:02.738Z,9.6
2022-11-16T00:54:04.470Z,9.0
2022-11-16T00:56:02.866Z,10.4
2022-11-16T00:58:02.712Z,9.7
2022-11-16T01:00:02.952Z,13.2
2022-11-16T01:02:02.817Z,10.2
2022-11-16T01:04:02.708Z,9.9
2022-11-16T01:06:04.223Z,10.4
2022-11-16T01:08:03.904Z,12.1
2022-11-16T01:10:02.862Z,10.2
2022-11-16T01:12:09.749Z,11.0
2022-11-16T01:14:04.282Z,11.4
2022-11-16T01:16:02.658Z,10.1
2022-11-16T01:18:02.988Z,11.2
2022-11-16T01:20:03.654Z,11.2
2022-11-16T01:22:02.737Z,9.7
2022-11-16T01:24:02.617Z,8.7
2022-11-16T01:26:03.246Z,11.3
2022-11-16T01:28:02.657Z,9.9
2022-11-16T01:30:03.971Z,10.4
2022-11-16T01:32:02.883Z,10.5
2022-11-16T01:34:03.314Z,13.0
2022-11-16T01:36:02.598Z,9.6
2022-11-16T01:38:04.603Z,10.8
2022-11-16T01:40:02.645Z,10.5
2022-11-16T01:42:02.911Z,10.5
2022-11-16T01:44:04.765Z,10.5
2022-11-16T01:46:02.567Z,11.0
2022-11-16T01:48:02.635Z,10.5
2022-11-16T01:50:09.427Z,12.3
2022-11-16T01:52:06.683Z,11.3
2022-11-16T01:54:06.960Z,11.6
2022-11-16T01:56:03.970Z,10.6
2022-11-16T01:58:04.373Z,13.3
2022-11-16T02:00:06.039Z,15.6
2022-11-16T02:02:03.738Z,11.2
2022-11-16T02:04:02.915Z,12.0
2022-11-16T02:06:16.691Z,11.9
2022-11-16T02:08:28.428Z,11.4
2022-11-16T02:10:16.392Z,12.6
2022-11-16T02:12:18.190Z,13.4
2022-11-16T02:14:15.375Z,15.9
2022-11-16T02:16:12.631Z,16.3
2022-11-16T02:18:15.247Z,13.8
2022-11-16T02:20:21.607Z,14.2
2022-11-16T02:22:15.537Z,12.0
2022-11-16T02:24:15.973Z,11.6
2022-11-16T02:26:20.696Z,13.1
2022-11-16T02:28:20.908Z,11.6
2022-11-16T02:30:05.243Z,13.8
2022-11-16T02:32:08.707Z,12.7
2022-11-16T02:34:06.338Z,11.8
2022-11-16T02:36:06.176Z,11.5
2022-11-16T02:38:07.665Z,12.7
2022-11-16T02:40:09.901Z,11.0
2022-11-16T02:42:07.371Z,14.8
2022-11-16T02:44:08.434Z,11.6
2022-11-16T02:46:08.666Z,12.5
2022-11-16T02:48:09.033Z,12.4
2022-11-16T02:50:07.484Z,12.2
2022-11-16T02:52:04.795Z,11.5
2022-11-16T02:54:04.996Z,15.5
2022-11-16T02:56:02.636Z,11.3
2022-11-16T02:58:06.524Z,12.3
2022-11-16T03:00:05.723Z,12.0
2022-11-16T03:02:12.692Z,13.4
2022-11-16T03:04:08.307Z,13.0
2022-11-16T03:06:09.565Z,12.8
2022-11-16T03:08:12.993Z,13.1
2022-11-16T03:10:03.965Z,12.3
2022-11-16T03:12:08.041Z,11.6
2022-11-16T03:14:08.414Z,12.4
2022-11-16T03:16:10.461Z,12.5
2022-11-16T03:18:05.289Z,13.8
2022-11-16T03:20:06.792Z,15.1
2022-11-16T03:22:12.361Z,17.3
2022-11-16T03:24:03.772Z,23.1
2022-11-16T03:26:07.725Z,31.5
2022-11-16T03:28:08.562Z,26.2
2022-11-16T03:30:07.780Z,31.6
2022-11-16T03:32:12.465Z,33.6
2022-11-16T03:34:10.119Z,40.9
2022-11-16T03:36:06.947Z,42.7
2022-11-16T03:38:06.209Z,36.8
2022-11-16T03:40:05.360Z,35.4
2022-11-16T03:42:08.145Z,33.8
2022-11-16T03:44:04.454Z,35.2
2022-11-16T03:46:02.638Z,35.2
2022-11-16T03:48:03.484Z,37.9
2022-11-16T03:50:02.555Z,43.1
2022-11-16T03:52:02.840Z,39.4
2022-11-16T03:54:02.763Z,44.9
2022-11-16T03:56:03.995Z,21.3
2022-11-16T03:58:02.602Z,33.6
2022-11-16T04:00:04.025Z,27.5
2022-11-16T04:02:02.557Z,22.6
2022-11-16T04:04:03.344Z,24.3
2022-11-16T04:06:11.605Z,35.9
2022-11-16T04:08:11.911Z,43.8
2022-11-16T04:10:11.627Z,29.9
2022-11-16T04:12:11.860Z,30.8
2022-11-16T04:14:11.654Z,40.5
2022-11-16T04:16:11.776Z,28.6
2022-11-16T04:18:11.649Z,26.5
2022-11-16T04:20:13.332Z,26.6
2022-11-16T04:22:16.052Z,24.5
2022-11-16T04:24:13.302Z,22.6
2022-11-16T04:26:04.711Z,24.5
2022-11-16T04:28:13.106Z,22.8
2022-11-16T04:30:05.970Z,21.7
2022-11-16T04:32:14.444Z,24.2
2022-11-16T04:34:12.393Z,23.6
2022-11-16T04:36:17.851Z,21.6
2022-11-16T04:38:05.219Z,25.0
2022-11-16T04:40:06.125Z,22.8
2022-11-16T04:42:11.960Z,23.8
2022-11-16T04:44:06.058Z,23.4
2022-11-16T04:46:12.390Z,22.1
2022-11-16T04:48:05.905Z,19.9
2022-11-16T04:50:05.665Z,21.6
2022-11-16T04:52:06.935Z,23.8
2022-11-16T04:54:04.902Z,22.5
2022-11-16T04:56:07.386Z,23.6
2022-11-16T04:58:06.156Z,20.3
2022-11-16T05:00:04.942Z,18.8
2022-11-16T05:02:09.768Z,19.7
2022-11-16T05:04:04.454Z,20.0
2022-11-16T05:06:06.912Z,19.7
2022-11-16T05:08:20.029Z,20.3
2022-11-16T05:10:07.089Z,20.9
2022-11-16T05:12:08.536Z,17.9
2022-11-16T05:14:06.430Z,18.8
2022-11-16T05:16:03.867Z,16.7
2022-11-16T05:18:05.833Z,14.8
2022-11-16T05:20:14.313Z,15.0
2022-11-16T05:22:05.560Z,14.3
2022-11-16T05:24:16.154Z,14.4
2022-11-16T05:26:04.295Z,14.7
2022-11-16T05:28:05.409Z,16.5
2022-11-16T05:30:05.223Z,14.6
2022-11-16T05:32:09.639Z,14.4
2022-11-16T05:34:08.221Z,14.5
2022-11-16T05:36:07.012Z,16.7
2022-11-16T05:38:05.505Z,20.4
2022-11-16T05:40:08.078Z,20.5
2022-11-16T05:42:07.292Z,24.5
2022-11-16T05:44:05.928Z,23.7
2022-11-16T05:46:04.183Z,19.7
2022-11-16T05:48:05.689Z,17.0
2022-11-16T05:50:06.707Z,17.2
2022-11-16T05:52:06.958Z,18.9
2022-11-16T05:54:04.860Z,16.7
2022-11-16T05:56:08.109Z,16.1
2022-11-16T05:58:04.650Z,16.5
2022-11-16T06:00:06.328Z,18.0
2022-11-16T06:02:11.361Z,16.6
2022-11-16T06:04:06.523Z,19.8
2022-11-16T06:06:04.974Z,18.6
2022-11-16T06:08:04.172Z,15.9
2022-11-16T06:10:08.912Z,15.8
2022-11-16T06:12:04.134Z,16.3
2022-11-16T06:14:03.791Z,14.2
2022-11-16T06:16:05.921Z,20.5
2022-11-16T06:18:04.905Z,15.7
2022-11-16T06:20:07.306Z,15.6
2022-11-16T06:22:11.481Z,25.5
2022-11-16T06:24:09.213Z,18.6
2022-11-16T06:26:05.246Z,20.6
2022-11-16T06:28:07.649Z,26.7
2022-11-16T06:30:03.669Z,26.5
2022-11-16T06:32:04.556Z,22.9
2022-11-16T06:34:03.672Z,23.3
2022-11-16T06:36:09.369Z,23.9
2022-11-16T06:38:07.212Z,29.3
2022-11-16T06:40:09.014Z,92.5
2022-11-16T06:42:06.677Z,149.8
2022-11-16T06:44:07.019Z,138.5
2022-11-16T06:46:05.014Z,129.0
2022-11-16T06:48:03.825Z,146.2
2022-11-16T06:50:04.511Z,154.6
2022-11-16T06:52:04.410Z,107.1
2022-11-16T06:54:05.043Z,122.5
2022-11-16T06:56:04.276Z,180.8
2022-11-16T06:58:03.058Z,153.0
2022-11-16T07:00:04.346Z,124.1
2022-11-16T07:02:05.083Z,116.5
2022-11-16T07:04:07.214Z,106.6
2022-11-16T07:06:07.968Z,78.3
2022-11-16T07:08:06.966Z,45.1
2022-11-16T07:10:04.090Z,54.8
2022-11-16T07:12:06.244Z,38.2
2022-11-16T07:14:06.154Z,36.2
2022-11-16T07:16:06.284Z,34.4
2022-11-16T07:18:08.020Z,27.2
2022-11-16T07:20:06.072Z,35.2
2022-11-16T07:22:05.064Z,32.0
2022-11-16T07:24:07.403Z,31.5
2022-11-16T07:26:07.136Z,31.8
2022-11-16T07:28:04.944Z,28.2
2022-11-16T07:30:02.990Z,27.7
2022-11-16T07:32:03.427Z,26.8
2022-11-16T07:34:03.329Z,32.3
2022-11-16T07:36:05.340Z,51.2
2022-11-16T07:38:03.243Z,86.0
2022-11-16T07:40:03.347Z,169.8
2022-11-16T07:42:02.561Z,172.1
2022-11-16T07:44:07.328Z,139.8
2022-11-16T07:48:03.209Z,99.4
2022-11-16T07:50:03.704Z,83.2
2022-11-16T07:52:03.724Z,62.7
2022-11-16T07:54:03.570Z,68.5
2022-11-16T07:56:04.119Z,61.7
2022-11-16T07:58:03.468Z,49.1
2022-11-16T08:00:03.839Z,46.2
2022-11-16T08:02:02.990Z,53.4
2022-11-16T08:04:02.584Z,49.1
2022-11-16T08:06:05.740Z,50.1
2022-11-16T08:08:02.880Z,50.1
2022-11-16T08:10:03.621Z,43.6
2022-11-16T08:12:03.319Z,43.1
2022-11-16T08:14:02.582Z,43.3
2022-11-16T08:16:04.395Z,42.4
2022-11-16T08:18:02.581Z,41.1
2022-11-16T08:20:03.264Z,46.7
2022-11-16T08:22:03.743Z,42.4
2022-11-16T08:24:03.377Z,46.3
2022-11-16T08:26:05.695Z,43.5
2022-11-16T08:28:02.402Z,45.1
2022-11-16T08:30:03.800Z,44.5
2022-11-16T08:32:02.819Z,50.1
2022-11-16T08:34:02.616Z,44.3
2022-11-16T08:36:09.463Z,40.7
2022-11-16T08:38:02.639Z,45.0
2022-11-16T08:40:03.251Z,46.5
2022-11-16T08:42:02.540Z,40.3
2022-11-16T08:44:03.577Z,39.9
2022-11-16T08:46:02.883Z,41.1
2022-11-16T08:48:03.917Z,38.7
2022-11-16T08:50:02.591Z,39.4
2022-11-16T08:52:02.547Z,39.4
2022-11-16T08:54:03.346Z,37.3
2022-11-16T08:56:04.568Z,31.5
2022-11-16T08:58:03.352Z,36.5
2022-11-16T09:00:03.317Z,36.6
2022-11-16T09:02:02.589Z,30.9
2022-11-16T09:04:03.161Z,29.0
2022-11-16T09:06:02.545Z,24.6
2022-11-16T09:08:05.226Z,29.4
2022-11-16T09:10:02.776Z,26.7
2022-11-16T09:12:02.591Z,28.4
2022-11-16T09:14:02.547Z,26.5
2022-11-16T09:16:03.629Z,28.3
2022-11-16T09:18:02.532Z,29.4
2022-11-16T09:20:04.071Z,28.7
2022-11-16T09:22:03.180Z,29.2
2022-11-16T09:24:03.113Z,30.1
2022-11-16T09:26:04.052Z,28.4
2022-11-16T09:28:02.581Z,28.2
2022-11-16T09:30:02.563Z,34.9
2022-11-16T09:32:02.966Z,27.6
2022-11-16T09:34:02.672Z,28.7
2022-11-16T09:36:06.482Z,28.2
2022-11-16T09:38:03.533Z,28.1
2022-11-16T09:40:02.765Z,30.0
2022-11-16T09:42:15.597Z,29.0
2022-11-16T09:44:12.445Z,28.8
2022-11-16T09:46:13.435Z,32.8
2022-11-16T09:48:07.042Z,32.2
2022-11-16T09:50:05.839Z,31.6
2022-11-16T09:52:05.603Z,28.0
2022-11-16T09:54:06.416Z,27.8
2022-11-16T09:56:06.844Z,29.9
2022-11-16T09:58:08.496Z,31.7
2022-11-16T10:00:09.792Z,32.0
2022-11-16T10:02:17.388Z,39.3
2022-11-16T10:04:09.377Z,38.0
2022-11-16T10:06:05.717Z,30.7
2022-11-16T10:08:12.874Z,30.7
2022-11-16T10:10:02.815Z,30.5
2022-11-16T10:12:11.275Z,30.3
2022-11-16T10:14:20.980Z,28.2
2022-11-16T10:16:08.601Z,29.7
2022-11-16T10:18:15.793Z,30.5
2022-11-16T10:20:18.796Z,30.4
2022-11-16T10:22:09.520Z,33.6
2022-11-16T10:24:21.803Z,36.9
2022-11-16T10:26:14.276Z,35.3
2022-11-16T10:28:21.632Z,36.6
2022-11-16T10:30:09.605Z,28.7
2022-11-16T10:32:16.276Z,32.9
2022-11-16T10:34:06.935Z,27.6
2022-11-16T10:36:06.344Z,28.8
2022-11-16T10:38:11.064Z,31.2
2022-11-16T10:40:12.891Z,29.3
2022-11-16T10:42:07.843Z,29.1
2022-11-16T10:44:12.126Z,24.3
2022-11-16T10:46:12.958Z,26.1
2022-11-16T10:48:11.614Z,27.8
2022-11-16T10:50:06.535Z,27.2
2022-11-16T10:52:03.596Z,29.2
2022-11-16T10:54:04.204Z,27.4
2022-11-16T10:56:17.033Z,30.1
2022-11-16T10:58:04.632Z,27.6
2022-11-16T11:00:02.979Z,32.0
2022-11-16T11:02:21.599Z,32.2
2022-11-16T11:04:13.916Z,33.5
2022-11-16T11:06:03.143Z,37.5
2022-11-16T11:08:04.801Z,31.3
2022-11-16T11:10:02.937Z,33.5
2022-11-16T11:12:22.567Z,30.9
2022-11-16T11:14:04.985Z,30.9
2022-11-16T11:16:16.531Z,31.6
2022-11-16T11:18:19.225Z,34.4
2022-11-16T11:20:05.513Z,30.6
2022-11-16T11:22:02.598Z,31.8
2022-11-16T11:24:37.386Z,30.5
2022-11-16T11:26:02.566Z,29.9
2022-11-16T11:28:08.088Z,57.8
2022-11-16T11:30:03.447Z,95.4
2022-11-16T11:32:06.694Z,68.0
2022-11-16T11:34:15.049Z,47.9
2022-11-16T11:36:07.509Z,45.9
2022-11-16T11:38:07.930Z,35.5
2022-11-16T11:40:17.508Z,39.2
2022-11-16T11:42:05.522Z,34.8
2022-11-16T11:44:05.095Z,44.0
2022-11-16T11:46:10.120Z,34.7
2022-11-16T11:48:07.647Z,58.7
2022-11-16T11:50:11.621Z,55.7
2022-11-16T11:52:11.166Z,36.9
2022-11-16T11:54:11.523Z,34.5
2022-11-16T11:56:02.429Z,38.5
2022-11-16T11:58:06.356Z,43.4
2022-11-16T12:00:04.122Z,47.8
2022-11-16T12:02:21.706Z,51.0
2022-11-16T12:04:21.634Z,53.8
2022-11-16T12:06:13.927Z,56.0
2022-11-16T12:08:20.682Z,40.2
2022-11-16T12:10:11.215Z,36.2
2022-11-16T12:12:14.803Z,37.6
2022-11-16T12:14:12.520Z,31.1
2022-11-16T12:16:12.749Z,28.0
2022-11-16T12:18:10.618Z,30.2
2022-11-16T12:20:17.025Z,32.3
2022-11-16T12:22:15.170Z,30.3
2022-11-16T12:24:20.424Z,28.4
2022-11-16T12:26:07.856Z,32.8
2022-11-16T12:28:17.962Z,28.6
2022-11-16T12:30:10.328Z,29.3
2022-11-16T12:32:20.043Z,30.7
2022-11-16T12:34:11.689Z,32.1
2022-11-16T12:36:08.602Z,27.8
2022-11-16T12:38:14.209Z,29.6
2022-11-16T12:40:21.682Z,27.6
2022-11-16T12:42:13.204Z,28.0
2022-11-16T12:44:07.051Z,28.0
2022-11-16T12:46:12.266Z,29.1
2022-11-16T12:48:19.808Z,28.1
2022-11-16T12:50:08.324Z,28.1
2022-11-16T12:52:14.475Z,29.9
2022-11-16T12:54:10.442Z,31.1
2022-11-16T12:56:14.295Z,28.3
2022-11-16T12:58:12.970Z,32.2
2022-11-16T13:00:08.028Z,29.5
2022-11-16T13:02:13.154Z,26.6
2022-11-16T13:04:08.475Z,33.4
2022-11-16T13:08:07.742Z,32.2
2022-11-16T13:10:07.499Z,33.6
2022-11-16T13:12:06.550Z,30.9
2022-11-16T13:14:07.106Z,31.7
2022-11-16T13:16:05.489Z,33.7
2022-11-16T13:18:05.827Z,28.1
2022-11-16T13:20:21.645Z,28.8
2022-11-16T13:22:10.981Z,27.7
2022-11-16T13:24:19.739Z,29.4
2022-11-16T13:26:09.976Z,34.7
2022-11-16T13:28:10.566Z,29.3
2022-11-16T13:30:14.902Z,30.0
2022-11-16T13:32:09.568Z,28.0
2022-11-16T13:34:07.225Z,32.0
2022-11-16T13:36:21.613Z,30.3
2022-11-16T13:38:02.567Z,30.4
2022-11-16T13:40:21.058Z,31.7
2022-11-16T13:42:12.877Z,30.1
2022-11-16T13:44:05.009Z,27.7
2022-11-16T13:46:02.896Z,32.9
2022-11-16T13:48:07.383Z,24.9
2022-11-16T13:50:06.484Z,29.7
2022-11-16T13:52:22.623Z,29.7
2022-11-16T13:54:44.482Z,28.7
2022-11-16T13:56:05.475Z,26.6
2022-11-16T13:58:06.156Z,27.9
2022-11-16T14:00:20.881Z,27.4
2022-11-16T14:02:13.653Z,27.6
2022-11-16T14:04:21.673Z,28.0
2022-11-16T14:06:03.210Z,27.6
2022-11-16T14:08:21.604Z,27.2
2022-11-16T14:10:05.881Z,29.0
2022-11-16T14:12:21.633Z,28.6
2022-11-16T14:14:05.957Z,28.8
2022-11-16T14:16:22.297Z,28.5
2022-11-16T14:18:21.620Z,26.7
2022-11-16T14:20:04.271Z,27.0
2022-11-16T14:22:10.385Z,27.8
2022-11-16T14:24:15.692Z,26.8
2022-11-16T14:26:12.749Z,30.3
2022-11-16T14:28:20.648Z,27.4
2022-11-16T14:30:10.523Z,31.5
2022-11-16T14:32:04.898Z,29.9
2022-11-16T14:34:04.561Z,33.3
2022-11-16T14:36:05.087Z,30.3
2022-11-16T14:38:06.641Z,27.9
2022-11-16T14:40:08.663Z,26.9
2022-11-16T14:42:06.527Z,26.9
2022-11-16T14:44:03.326Z,28.4
2022-11-16T14:46:07.051Z,25.7
2022-11-16T14:48:05.907Z,25.9
2022-11-16T14:50:03.598Z,25.6
2022-11-16T14:52:05.806Z,24.7
2022-11-16T14:54:11.756Z,25.5
2022-11-16T14:56:09.310Z,23.5
2022-11-16T14:58:17.246Z,26.4
2022-11-16T15:00:19.097Z,24.1
2022-11-16T15:02:15.084Z,24.4
2022-11-16T15:04:05.518Z,24.3
2022-11-16T15:06:04.605Z,26.5
2022-11-16T15:08:15.629Z,29.3
2022-11-16T15:10:03.896Z,27.5
2022-11-16T15:12:14.326Z,26.8
2022-11-16T15:14:02.804Z,25.1
2022-11-16T15:16:15.631Z,27.3
2022-11-16T15:18:11.900Z,27.3
2022-11-16T15:20:13.195Z,27.1
2022-11-16T15:22:04.623Z,26.3
2022-11-16T15:24:23.906Z,25.4
2022-11-16T15:26:04.205Z,26.2
2022-11-16T15:28:05.309Z,23.7
2022-11-16T15:30:13.408Z,26.2
2022-11-16T15:32:03.250Z,25.4
2022-11-16T15:34:02.741Z,26.0
2022-11-16T15:36:21.689Z,25.8
2022-11-16T15:38:05.154Z,25.7
2022-11-16T15:40:02.989Z,26.3
2022-11-16T15:42:04.446Z,25.9
2022-11-16T15:44:15.332Z,26.8
2022-11-16T15:46:03.691Z,26.9
2022-11-16T15:48:04.458Z,24.4
2022-11-16T15:50:02.822Z,25.9
2022-11-16T15:52:04.121Z,25.4
2022-11-16T15:54:13.994Z,26.5
2022-11-16T15:56:04.230Z,26.2
2022-11-16T15:58:08.242Z,25.3
2022-11-16T16:00:02.865Z,24.4
2022-11-16T16:02:03.874Z,23.1
2022-11-16T16:04:05.877Z,25.0
2022-11-16T16:06:04.893Z,25.6
2022-11-16T16:08:03.188Z,25.2
2022-11-16T16:10:13.838Z,25.6
2022-11-16T16:12:16.943Z,22.3
2022-11-16T16:14:04.308Z,23.1
2022-11-16T16:16:20.249Z,23.7
2022-11-16T16:18:04.962Z,24.9
2022-11-16T16:20:06.111Z,24.2
2022-11-16T16:22:04.829Z,23.5
2022-11-16T16:24:03.452Z,24.5
2022-11-16T16:26:04.473Z,24.6
2022-11-16T16:28:03.610Z,24.8
2022-11-16T16:30:06.623Z,24.2
2022-11-16T16:32:02.570Z,23.2
2022-11-16T16:34:11.731Z,24.5
2022-11-16T16:36:03.903Z,24.1
2022-11-16T16:38:02.673Z,24.5
2022-11-16T16:40:02.918Z,25.4
2022-11-16T16:42:03.994Z,24.9
2022-11-16T16:44:05.358Z,23.9
2022-11-16T16:46:05.377Z,23.9
2022-11-16T16:48:03.241Z,23.8
2022-11-16T16:50:03.788Z,24.2
2022-11-16T16:52:04.341Z,26.3
2022-11-16T16:54:04.194Z,23.2
2022-11-16T16:56:06.142Z,22.6
2022-11-16T16:58:05.968Z,21.9
2022-11-16T17:00:05.698Z,23.2
2022-11-16T17:02:12.165Z,23.4
2022-11-16T17:04:09.267Z,25.2
2022-11-16T17:06:03.630Z,25.2
2022-11-16T17:08:05.558Z,24.0
2022-11-16T17:10:04.067Z,23.0
2022-11-16T17:12:05.598Z,24.9
2022-11-16T17:14:06.053Z,26.0
2022-11-16T17:16:06.884Z,24.7
2022-11-16T17:18:03.851Z,25.6
2022-11-16T17:20:06.331Z,24.3
2022-11-16T17:22:05.715Z,22.5
2022-11-16T17:24:05.606Z,24.7
2022-11-16T17:26:09.832Z,24.3
2022-11-16T17:28:04.548Z,26.0
2022-11-16T17:30:04.262Z,29.0
2022-11-16T17:32:08.169Z,25.3
2022-11-16T17:34:13.826Z,24.1
2022-11-16T17:36:07.388Z,25.5
2022-11-16T17:38:07.910Z,24.9
2022-11-16T17:40:07.624Z,28.6
2022-11-16T17:42:05.331Z,26.0
2022-11-16T17:44:11.119Z,24.5
2022-11-16T17:46:06.525Z,24.0
2022-11-16T17:48:04.485Z,23.6
2022-11-16T17:50:04.982Z,22.8
2022-11-16T17:52:06.508Z,23.2
2022-11-16T17:54:04.894Z,24.7
2022-11-16T17:56:08.978Z,26.1
2022-11-16T17:58:04.367Z,46.7
2022-11-16T18:00:05.114Z,43.7
2022-11-16T18:02:04.022Z,39.4
2022-11-16T18:04:04.624Z,35.0
2022-11-16T18:06:06.183Z,45.2
2022-11-16T18:08:04.708Z,35.0
2022-11-16T18:10:02.937Z,34.2
2022-11-16T18:12:03.020Z,33.1
2022-11-16T18:14:05.118Z,27.6
2022-11-16T18:16:04.322Z,30.4
2022-11-16T18:18:05.056Z,29.6
2022-11-16T18:20:04.429Z,31.0
2022-11-16T18:22:02.666Z,35.5
2022-11-16T18:24:02.977Z,25.5
2022-11-16T18:26:07.480Z,29.0
2022-11-16T18:28:02.683Z,20.4
2022-11-16T18:30:02.858Z,20.4
2022-11-16T18:32:02.634Z,19.2
2022-11-16T18:34:02.838Z,15.4
2022-11-16T18:36:04.075Z,17.6
2022-11-16T18:38:03.187Z,15.8
2022-11-16T18:40:02.868Z,14.5
2022-11-16T18:42:02.768Z,13.6
2022-11-16T18:44:03.036Z,14.0
2022-11-16T18:46:02.654Z,11.5
2022-11-16T18:48:02.782Z,11.4
2022-11-16T18:50:03.424Z,10.7
2022-11-16T18:52:03.423Z,10.2
2022-11-16T18:54:02.557Z,10.1
2022-11-16T18:56:02.670Z,10.6
2022-11-16T18:58:04.505Z,11.2
2022-11-16T19:00:03.096Z,10.6
2022-11-16T19:02:02.724Z,10.0
2022-11-16T19:04:03.317Z,7.5
2022-11-16T19:06:07.037Z,10.5
2022-11-16T19:08:02.560Z,8.3
2022-11-16T19:10:03.357Z,8.8
2022-11-16T19:12:02.717Z,7.7
2022-11-16T19:14:04.400Z,7.6
2022-11-16T19:16:02.697Z,8.3
2022-11-16T19:18:21.265Z,9.8
2022-11-16T19:20:03.150Z,9.6
2022-11-16T19:22:02.572Z,8.5
2022-11-16T19:24:03.463Z,9.2
2022-11-16T19:26:04.627Z,8.2
2022-11-16T19:28:04.795Z,8.8
2022-11-16T19:30:02.548Z,8.7
2022-11-16T19:32:02.537Z,8.3
2022-11-16T19:34:05.255Z,8.3
2022-11-16T19:36:06.998Z,8.9
2022-11-16T19:38:03.116Z,8.3
2022-11-16T19:40:02.642Z,8.5
2022-11-16T19:42:04.326Z,8.0
2022-11-16T19:44:03.185Z,8.6
2022-11-16T19:46:04.776Z,8.3
2022-11-16T19:48:02.905Z,9.5
2022-11-16T19:50:02.582Z,8.4
2022-11-16T19:52:03.417Z,8.7
2022-11-16T19:54:03.353Z,7.6
2022-11-16T19:56:02.924Z,6.8
2022-11-16T19:58:03.120Z,6.7
2022-11-16T20:00:03.801Z,7.9
2022-11-16T20:02:02.618Z,8.5
2022-11-16T20:04:04.424Z,8.8
2022-11-16T20:06:08.396Z,8.9
2022-11-16T20:08:02.538Z,8.9
2022-11-16T20:10:02.833Z,7.9
2022-11-16T20:12:02.907Z,6.9
2022-11-16T20:14:04.902Z,8.0
2022-11-16T20:16:02.795Z,7.9
2022-11-16T20:18:02.564Z,7.7
2022-11-16T20:20:02.587Z,8.2
2022-11-16T20:22:02.615Z,9.9
2022-11-16T20:24:06.985Z,8.2
2022-11-16T20:26:05.998Z,7.8
2022-11-16T20:28:02.745Z,10.2
2022-11-16T20:30:08.002Z,8.6
2022-11-16T20:32:02.579Z,10.3
2022-11-16T20:34:05.104Z,12.7
2022-11-16T20:36:03.373Z,8.9
2022-11-16T20:38:02.591Z,8.5
2022-11-16T20:40:02.900Z,8.6
2022-11-16T20:42:02.553Z,9.4
2022-11-16T20:44:02.769Z,9.8
2022-11-16T20:46:03.326Z,9.2
2022-11-16T20:48:03.909Z,10.3
2022-11-16T20:50:03.328Z,9.6
2022-11-16T20:52:03.389Z,11.8
2022-11-16T20:54:03.124Z,10.6
2022-11-16T20:56:04.698Z,9.8
2022-11-16T20:58:03.177Z,9.8
2022-11-16T21:00:04.637Z,12.8
2022-11-16T21:02:03.151Z,10.0
2022-11-16T21:04:05.077Z,11.4
2022-11-16T21:06:02.570Z,11.4
2022-11-16T21:08:02.815Z,9.9
2022-11-16T21:10:11.768Z,9.5
2022-11-16T21:12:11.851Z,9.0
2022-11-16T21:14:11.598Z,10.3
2022-11-16T21:16:05.466Z,10.3
2022-11-16T21:18:02.581Z,10.6
2022-11-16T21:20:26.254Z,9.8
2022-11-16T21:22:02.641Z,10.3
2022-11-16T21:24:02.825Z,10.0
2022-11-16T21:26:04.182Z,9.0
2022-11-16T21:28:02.686Z,10.7
2022-11-16T21:30:03.423Z,8.4
2022-11-16T21:32:02.591Z,9.1
2022-11-16T21:34:04.259Z,8.9
2022-11-16T21:36:04.109Z,11.1
2022-11-16T21:38:02.553Z,10.2
2022-11-16T21:40:03.341Z,10.4
2022-11-16T21:42:02.564Z,8.9
2022-11-16T21:44:02.537Z,10.1
2022-11-16T21:46:05.329Z,11.7
2022-11-16T21:48:02.735Z,8.8
2022-11-16T21:50:30.570Z,10.2
2022-11-16T21:52:02.812Z,10.0
2022-11-16T21:54:03.195Z,8.4
2022-11-16T21:56:04.399Z,9.9
2022-11-16T21:58:03.739Z,9.1
2022-11-16T22:00:02.828Z,10.4
2022-11-16T22:02:02.553Z,9.6
2022-11-16T22:04:11.978Z,10.0
2022-11-16T22:06:14.480Z,9.9
2022-11-16T22:08:05.115Z,9.5
2022-11-16T22:10:05.632Z,10.0
2022-11-16T22:12:05.424Z,9.5
2022-11-16T22:14:02.573Z,8.2
2022-11-16T22:16:05.575Z,8.3
2022-11-16T22:18:03.280Z,7.6
2022-11-16T22:20:02.858Z,7.8
2022-11-16T22:22:02.580Z,8.1
2022-11-16T22:24:02.746Z,10.6
2022-11-16T22:26:03.813Z,7.8
2022-11-16T22:28:20.271Z,9.2
2022-11-16T22:30:03.315Z,11.7
2022-11-16T22:32:03.101Z,10.1
2022-11-16T22:34:02.603Z,9.0
2022-11-16T22:36:03.423Z,7.5
2022-11-16T22:38:04.081Z,8.4
2022-11-16T22:40:02.963Z,7.6
2022-11-16T22:42:03.384Z,7.4
2022-11-16T22:44:02.560Z,8.0
2022-11-16T22:46:06.011Z,7.6
2022-11-16T22:48:03.331Z,8.0
2022-11-16T22:50:03.277Z,7.5
2022-11-16T22:52:02.601Z,7.8
2022-11-16T22:54:05.270Z,8.2
2022-11-16T22:56:06.988Z,8.7
2022-11-16T22:58:02.615Z,8.0
2022-11-16T23:00:03.432Z,7.5
2022-11-16T23:02:04.648Z,8.0
2022-11-16T23:04:03.060Z,8.8
2022-11-16T23:06:04.052Z,9.0
2022-11-16T23:08:02.652Z,8.5
2022-11-16T23:10:02.723Z,9.1
2022-11-16T23:12:11.918Z,10.7
2022-11-16T23:14:12.752Z,9.9
2022-11-16T23:16:05.742Z,9.5
2022-11-16T23:18:02.622Z,8.5
2022-11-16T23:20:17.474Z,9.8
2022-11-16T23:22:11.830Z,8.0
2022-11-16T23:24:11.866Z,8.5
2022-11-16T23:26:13.030Z,9.3
2022-11-16T23:28:06.953Z,10.9
2022-11-16T23:30:12.216Z,12.3
2022-11-16T23:32:02.657Z,10.1
2022-11-16T23:34:02.683Z,11.6
2022-11-16T23:36:03.034Z,9.2
2022-11-16T23:38:04.657Z,9.9
2022-11-16T23:40:02.701Z,11.3
2022-11-16T23:42:11.659Z,8.5
2022-11-16T23:44:02.606Z,11.0
2022-11-16T23:46:03.400Z,9.8
2022-11-16T23:48:02.846Z,12.3
2022-11-16T23:50:03.587Z,11.7
2022-11-16T23:52:02.638Z,11.6
2022-11-16T23:54:04.364Z,13.4
2022-11-16T23:56:06.008Z,13.6
2022-11-16T23:58:03.275Z,11.9
